createdAt,value
2024-01-21T00:02:24.335Z,99719.53
2024-01-21T00:06:26.498Z,99728.03
2024-01-21T00:10:28.631Z,99739.66
2024-01-21T00:14:30.764Z,99706.09
2024-01-21T00:18:33.007Z,99712.94
2024-01-21T00:22:35.503Z,99716.28
2024-01-21T00:26:37.839Z,99737.78
2024-01-21T00:30:41.285Z,99737.03
2024-01-21T00:34:43.910Z,99749.31
2024-01-21T00:38:46.667Z,99742.09
2024-01-21T00:42:49.170Z,99729.53
2024-01-21T00:46:52.123Z,99728.44
2024-01-21T00:50:54.224Z,99742.47
2024-01-21T00:54:56.627Z,99763.06
2024-01-21T00:58:58.762Z,99788.94
2024-01-21T01:03:01.071Z,99787.47
2024-01-21T01:07:03.537Z,99792.44
2024-01-21T01:11:05.733Z,99801.34
2024-01-21T01:15:12.416Z,99806.44
2024-01-21T01:19:14.725Z,99806.59
2024-01-21T01:23:16.860Z,99798.09
2024-01-21T01:27:19.149Z,99789.66
2024-01-21T01:31:22.240Z,99792.34
2024-01-21T01:35:26.881Z,99792.34
2024-01-21T01:39:29.020Z,99804.50
2024-01-21T01:43:31.419Z,99807.94
2024-01-21T01:47:34.322Z,99799.38
2024-01-21T01:51:37.965Z,99781.38
2024-01-21T01:55:40.305Z,99791.91
2024-01-21T01:59:42.628Z,99782.84
2024-01-21T02:03:46.581Z,99782.91
2024-01-21T02:07:48.814Z,99799.38
2024-01-21T02:11:51.194Z,99788.19
2024-01-21T02:15:53.416Z,99789.56
2024-01-21T02:19:55.513Z,99774.69
2024-01-21T02:23:57.661Z,99793.19
2024-01-21T02:27:59.727Z,99792.72
2024-01-21T02:32:01.922Z,99798.28
2024-01-21T02:36:04.250Z,99789.22
2024-01-21T02:40:06.966Z,99805.25
2024-01-21T02:44:09.120Z,99822.00
2024-01-21T02:48:11.448Z,99794.34
2024-01-21T02:52:13.635Z,99806.38
2024-01-21T02:56:26.773Z,99802.50
2024-01-21T03:00:28.957Z,99791.66
2024-01-21T03:04:31.101Z,99817.31
2024-01-21T03:08:33.460Z,99793.53
2024-01-21T03:12:37.443Z,99830.03
2024-01-21T03:16:39.561Z,99811.25
2024-01-21T03:20:41.691Z,99802.53
2024-01-21T03:24:43.898Z,99813.50
2024-01-21T03:28:46.022Z,99790.09
2024-01-21T03:32:48.237Z,99783.22
2024-01-21T03:36:50.482Z,99777.13
2024-01-21T03:40:52.618Z,99778.22
2024-01-21T03:44:54.744Z,99785.75
2024-01-21T03:48:57.029Z,99791.13
2024-01-21T03:53:00.272Z,99797.91
2024-01-21T03:57:02.401Z,99793.72
2024-01-21T04:01:05.065Z,99796.16
2024-01-21T04:05:08.215Z,99808.06
2024-01-21T04:09:11.484Z,99833.72
2024-01-21T04:13:13.751Z,99830.53
2024-01-21T04:17:15.972Z,99831.34
2024-01-21T04:21:18.792Z,99822.03
2024-01-21T04:25:20.874Z,99841.25
2024-01-21T04:29:23.007Z,99835.06
2024-01-21T04:33:25.175Z,99847.06
2024-01-21T04:37:27.277Z,99851.50
2024-01-21T04:41:29.443Z,99840.41
2024-01-21T04:45:31.590Z,99844.84
2024-01-21T04:49:33.872Z,99831.09
2024-01-21T04:53:38.929Z,99832.34
2024-01-21T04:57:41.452Z,99842.34
2024-01-21T05:01:44.045Z,99839.63
2024-01-21T05:05:46.165Z,99842.31
2024-01-21T05:09:48.346Z,99835.16
2024-01-21T05:13:52.211Z,99833.88
2024-01-21T05:17:57.809Z,99823.25
2024-01-21T05:21:59.995Z,99832.47
2024-01-21T05:26:02.143Z,99833.13
2024-01-21T05:30:07.977Z,99834.34
2024-01-21T05:34:14.786Z,99839.91
2024-01-21T05:38:26.328Z,99844.22
2024-01-21T05:42:34.745Z,99852.66
2024-01-21T05:46:42.938Z,99859.50
2024-01-21T05:50:50.296Z,99863.25
2024-01-21T05:54:59.119Z,99872.88
2024-01-21T05:59:07.098Z,99868.47
2024-01-21T06:03:14.783Z,99875.91
2024-01-21T06:07:22.435Z,99889.38
2024-01-21T06:11:27.553Z,99877.94
2024-01-21T06:15:29.703Z,99873.88
2024-01-21T06:19:31.930Z,99882.03
2024-01-21T06:23:34.079Z,99886.00
2024-01-21T06:27:36.283Z,99880.25
2024-01-21T06:31:38.457Z,99891.44
2024-01-21T06:35:40.983Z,99890.44
2024-01-21T06:39:51.077Z,99902.34
2024-01-21T06:43:59.265Z,99901.00
2024-01-21T06:48:01.486Z,99902.88
2024-01-21T06:52:05.764Z,99886.41
2024-01-21T06:56:10.974Z,99893.69
2024-01-21T07:00:13.898Z,99892.19
2024-01-21T07:04:16.566Z,99884.78
2024-01-21T07:08:20.034Z,99890.94
2024-01-21T07:12:22.096Z,99894.41
2024-01-21T07:16:24.284Z,99885.69
2024-01-21T07:20:26.377Z,99892.41
2024-01-21T07:24:28.533Z,99891.91
2024-01-21T07:28:30.695Z,99893.03
2024-01-21T07:32:32.896Z,99897.97
2024-01-21T07:36:35.053Z,99902.22
2024-01-21T07:40:37.144Z,99903.13
2024-01-21T07:44:39.384Z,99912.06
2024-01-21T07:48:41.568Z,99911.41
2024-01-21T07:52:44.195Z,99921.31
2024-01-21T07:56:46.445Z,99920.75
2024-01-21T08:00:48.966Z,99922.84
2024-01-21T08:04:51.115Z,99919.69
2024-01-21T08:08:53.186Z,99921.78
2024-01-21T08:12:55.609Z,99919.31
2024-01-21T08:16:57.733Z,99935.63
2024-01-21T08:20:59.839Z,99940.44
2024-01-21T08:25:02.653Z,99934.50
2024-01-21T08:29:05.062Z,99934.44
2024-01-21T08:33:07.242Z,99930.19
2024-01-21T08:37:09.735Z,99924.31
2024-01-21T08:41:12.885Z,99931.31
2024-01-21T08:45:15.315Z,99929.75
2024-01-21T08:49:17.969Z,99931.91
2024-01-21T08:53:22.117Z,99923.50
2024-01-21T08:57:24.299Z,99927.69
2024-01-21T09:01:26.712Z,99922.91
2024-01-21T09:05:29.766Z,99941.53
2024-01-21T09:09:32.553Z,99943.63
2024-01-21T09:13:35.075Z,99947.28
2024-01-21T09:17:37.327Z,99937.75
2024-01-21T09:21:39.538Z,99949.38
2024-01-21T09:25:41.732Z,99956.38
2024-01-21T09:29:45.161Z,99954.84
2024-01-21T09:33:47.486Z,99951.22
2024-01-21T09:37:49.968Z,99950.06
2024-01-21T09:41:53.484Z,99954.00
2024-01-21T09:45:58.455Z,99948.19
2024-01-21T09:50:00.726Z,99953.31
2024-01-21T09:54:06.113Z,99955.34
2024-01-21T09:58:14.700Z,99950.47
2024-01-21T10:02:17.996Z,99942.16
2024-01-21T10:06:20.604Z,99944.66
2024-01-21T10:10:22.827Z,99943.66
2024-01-21T10:14:33.013Z,99934.09
2024-01-21T10:18:36.187Z,99941.63
2024-01-21T10:22:38.677Z,99947.94
2024-01-21T10:26:44.388Z,99954.09
2024-01-21T10:30:46.778Z,99955.91
2024-01-21T10:34:53.784Z,99946.72
2024-01-21T10:38:56.636Z,99954.06
2024-01-21T10:43:00.730Z,99954.25
2024-01-21T10:47:03.915Z,99944.03
2024-01-21T10:51:07.430Z,99949.34
2024-01-21T10:55:09.935Z,99938.72
2024-01-21T10:59:12.446Z,99935.44
2024-01-21T11:03:26.529Z,99938.53
2024-01-21T11:07:31.345Z,99929.28
2024-01-21T11:11:43.056Z,99926.03
2024-01-21T11:15:49.036Z,99920.69
2024-01-21T11:19:55.923Z,99920.22
2024-01-21T11:24:06.428Z,99918.09
2024-01-21T11:28:27.896Z,99915.69
2024-01-21T11:32:32.066Z,99893.56
2024-01-21T11:36:34.862Z,99887.78
2024-01-21T11:40:36.996Z,99894.47
2024-01-21T11:44:41.167Z,99893.03
2024-01-21T11:48:43.336Z,99899.44
2024-01-21T11:52:46.588Z,99905.69
2024-01-21T11:56:48.997Z,99907.91
2024-01-21T12:00:51.398Z,99895.94
2024-01-21T12:04:56.209Z,99893.59
2024-01-21T12:09:01.084Z,99887.25
2024-01-21T12:13:06.840Z,99886.75
2024-01-21T12:17:09.140Z,99882.59
2024-01-21T12:21:14.833Z,99881.50
2024-01-21T12:25:18.694Z,99880.84
2024-01-21T12:29:21.584Z,99883.22
2024-01-21T12:33:24.016Z,99880.56
2024-01-21T12:37:26.304Z,99875.81
2024-01-21T12:41:28.629Z,99880.19
2024-01-21T12:45:30.814Z,99870.53
2024-01-21T12:49:33.463Z,99872.28
2024-01-21T12:53:35.777Z,99866.06
2024-01-21T12:57:38.099Z,99862.31
2024-01-21T13:01:41.346Z,99867.09
2024-01-21T13:05:44.003Z,99863.38
2024-01-21T13:09:46.864Z,99868.38
2024-01-21T13:13:49.185Z,99854.06
2024-01-21T13:17:52.470Z,99861.94
2024-01-21T13:21:54.682Z,99860.81
2024-01-21T13:25:56.998Z,99861.63
2024-01-21T13:30:18.197Z,99867.88
2024-01-21T13:34:20.614Z,99860.69
2024-01-21T13:38:31.629Z,99859.41
2024-01-21T13:42:34.296Z,99865.19
2024-01-21T13:46:36.466Z,99862.41
2024-01-21T13:50:42.116Z,99866.69
2024-01-21T13:54:46.700Z,99879.09
2024-01-21T13:58:48.940Z,99883.56
2024-01-21T14:02:57.046Z,99878.06
2024-01-21T14:06:59.503Z,99881.28
2024-01-21T14:11:01.769Z,99881.06
2024-01-21T14:15:04.556Z,99880.38
2024-01-21T14:19:07.072Z,99875.00
2024-01-21T14:23:09.246Z,99875.00
2024-01-21T14:27:11.713Z,99880.13
2024-01-21T14:31:14.148Z,99878.75
2024-01-21T14:35:16.400Z,99871.69
2024-01-21T14:39:19.086Z,99872.34
2024-01-21T14:43:21.289Z,99868.19
2024-01-21T14:47:23.614Z,99871.50
2024-01-21T14:51:25.812Z,99869.00
2024-01-21T14:55:27.968Z,99864.72
2024-01-21T14:59:34.416Z,99870.56
2024-01-21T15:03:36.644Z,99871.97
2024-01-21T15:07:42.393Z,99870.41
2024-01-21T15:11:47.333Z,99879.75
2024-01-21T15:15:49.595Z,99890.97
2024-01-21T15:19:51.834Z,99891.09
2024-01-21T15:23:53.996Z,99888.38
2024-01-21T15:27:56.700Z,99888.78
2024-01-21T15:31:59.151Z,99895.28
2024-01-21T15:36:01.339Z,99895.28
2024-01-21T15:40:05.301Z,99893.97
2024-01-21T15:44:07.566Z,99885.88
2024-01-21T15:48:10.321Z,99879.63
2024-01-21T15:52:12.911Z,99880.38
2024-01-21T15:56:15.021Z,99875.56
2024-01-21T16:00:18.401Z,99885.41
2024-01-21T16:04:20.819Z,99895.19
2024-01-21T16:08:23.141Z,99888.25
2024-01-21T16:12:25.577Z,99881.75
2024-01-21T16:16:27.838Z,99886.25
2024-01-21T16:20:32.306Z,99895.44
2024-01-21T16:24:36.391Z,99896.44
2024-01-21T16:28:38.608Z,99894.56
2024-01-21T16:32:40.871Z,99893.13
2024-01-21T16:36:43.296Z,99904.09
2024-01-21T16:40:45.650Z,99905.72
2024-01-21T16:44:47.925Z,99914.19
2024-01-21T16:48:50.280Z,99917.81
2024-01-21T16:52:58.170Z,99911.72
2024-01-21T16:57:00.545Z,99926.03
2024-01-21T17:01:07.529Z,99926.44
2024-01-21T17:05:10.190Z,99937.97
2024-01-21T17:09:12.782Z,99948.41
2024-01-21T17:13:15.220Z,99948.84
2024-01-21T17:17:20.075Z,99953.81
2024-01-21T17:21:22.211Z,99962.59
2024-01-21T17:25:24.652Z,99964.69
2024-01-21T17:29:26.970Z,99969.38
2024-01-21T17:33:30.384Z,99978.69
2024-01-21T17:37:33.197Z,99981.91
2024-01-21T17:41:35.467Z,99991.31
2024-01-21T17:45:38.051Z,99990.94
2024-01-21T17:49:40.385Z,99994.91
2024-01-21T17:53:42.742Z,100002.38
2024-01-21T17:57:44.997Z,99997.50
2024-01-21T18:01:47.228Z,100014.13
2024-01-21T18:05:49.587Z,100012.50
2024-01-21T18:09:52.161Z,100034.25
2024-01-21T18:13:54.295Z,100023.91
2024-01-21T18:17:56.463Z,100039.00
2024-01-21T18:21:59.810Z,100041.28
2024-01-21T18:26:02.027Z,100043.56
2024-01-21T18:30:04.860Z,100046.09
2024-01-21T18:34:08.033Z,100051.09
2024-01-21T18:38:10.558Z,100039.13
2024-01-21T18:42:12.749Z,100043.09
2024-01-21T18:46:14.998Z,100032.56
2024-01-21T18:50:17.831Z,100040.03
2024-01-21T18:54:20.807Z,100050.34
2024-01-21T18:58:27.712Z,100043.25
2024-01-21T19:02:30.411Z,100042.38
2024-01-21T19:06:32.578Z,100048.66
2024-01-21T19:10:35.277Z,100053.72
2024-01-21T19:14:37.593Z,100047.34
2024-01-21T19:18:42.709Z,100052.94
2024-01-21T19:22:46.504Z,100060.84
2024-01-21T19:26:48.749Z,100062.00
2024-01-21T19:30:50.851Z,100063.97
2024-01-21T19:34:54.884Z,100083.44
2024-01-21T19:38:57.239Z,100093.69
2024-01-21T19:42:59.583Z,100099.19
2024-01-21T19:47:01.749Z,100100.00
2024-01-21T19:51:06.007Z,100100.28
2024-01-21T19:55:10.389Z,100101.50
2024-01-21T19:59:14.163Z,100097.78
2024-01-21T20:03:16.409Z,100098.28
2024-01-21T20:07:23.038Z,100088.78
2024-01-21T20:11:25.557Z,100084.69
2024-01-21T20:15:28.260Z,100081.09
2024-01-21T20:19:30.575Z,100082.34
2024-01-21T20:23:34.058Z,100080.81
2024-01-21T20:27:37.416Z,100085.22
2024-01-21T20:31:39.629Z,100083.22
2024-01-21T20:35:41.892Z,100092.19
2024-01-21T20:39:44.790Z,100095.03
2024-01-21T20:43:48.495Z,100087.13
2024-01-21T20:47:50.779Z,100096.50
2024-01-21T20:51:53.135Z,100096.31
2024-01-21T20:55:56.651Z,100084.72
2024-01-21T20:59:58.885Z,100076.81
2024-01-21T21:04:02.437Z,100072.69
2024-01-21T21:08:06.638Z,100072.19
2024-01-21T21:12:09.347Z,100068.06
2024-01-21T21:16:14.179Z,100069.75
2024-01-21T21:20:17.176Z,100070.19
2024-01-21T21:24:20.053Z,100069.84
2024-01-21T21:28:22.493Z,100068.72
2024-01-21T21:32:25.484Z,100084.56
2024-01-21T21:36:27.860Z,100077.75
2024-01-21T21:40:30.108Z,100083.25
2024-01-21T21:44:32.312Z,100084.75
2024-01-21T21:48:34.604Z,100085.88
2024-01-21T21:52:37.094Z,100085.66
2024-01-21T21:56:39.767Z,100075.50
2024-01-21T22:00:43.189Z,100101.44
2024-01-21T22:04:50.239Z,100099.06
2024-01-21T22:08:58.660Z,100098.00
2024-01-21T22:13:02.883Z,100091.19
2024-01-21T22:17:05.879Z,100094.53
2024-01-21T22:21:17.634Z,100091.41
2024-01-21T22:25:20.634Z,100083.25
2024-01-21T22:29:23.320Z,100085.97
2024-01-21T22:33:25.763Z,100088.19
2024-01-21T22:37:28.562Z,100082.50
2024-01-21T22:41:34.057Z,100090.84
2024-01-21T22:45:38.391Z,100091.72
2024-01-21T22:49:42.802Z,100096.88
2024-01-21T22:53:49.909Z,100099.41
2024-01-21T22:57:52.189Z,100107.22
2024-01-21T23:01:54.302Z,100103.94
2024-01-21T23:05:56.962Z,100103.16
2024-01-21T23:09:59.426Z,100104.69
2024-01-21T23:14:01.858Z,100099.50
2024-01-21T23:18:04.034Z,100102.84
2024-01-21T23:22:06.189Z,100098.13
2024-01-21T23:26:08.764Z,100105.19
2024-01-21T23:30:11.426Z,100113.53
2024-01-21T23:34:14.062Z,100112.38
2024-01-21T23:38:16.547Z,100114.00
2024-01-21T23:42:18.777Z,100106.06
2024-01-21T23:46:24.144Z,100088.25
2024-01-21T23:50:26.789Z,100094.84
2024-01-21T23:54:29.381Z,100084.41
2024-01-21T23:58:34.054Z,100075.22
